Time;durP1;ratioP1;P1;durP2;ratioP2;P2;SDS_P1;SDS_P2;PMS_P1;PMS_P2;Temp;Humidity;BMP_temperature;BMP_pressure;BME280_temperature;BME280_humidity;BME280_pressure;Samples;Min_cycle;Max_cycle;Signal;HPM_P1;HPM_P2
2022/06/17 00:01:33;;;;;;;2.83;0.90;;;;;;;;;;5012199;28;20032;-86
2022/06/17 00:03:59;;;;;;;3.27;0.97;;;;;;;;;;5011950;28;20385;-85
2022/06/17 00:06:25;;;;;;;2.23;0.97;;;;;;;;;;5012067;28;20258;-84
2022/06/17 00:08:52;;;;;;;2.25;0.90;;;;;;;;;;5011899;28;20813;-84
2022/06/17 00:11:36;;;;;;;1.30;1.05;;;;;;;;;;5011957;28;20087;-84
2022/06/17 00:14:02;;;;;;;5.13;1.13;;;;;;;;;;5010825;28;20434;-84
2022/06/17 00:16:28;;;;;;;2.60;1.15;;;;;;;;;;5011532;28;20030;-84
2022/06/17 00:18:54;;;;;;;2.42;1.30;;;;;;;;;;5010754;28;20080;-85
2022/06/17 00:21:27;;;;;;;2.35;1.20;;;;;;;;;;5010781;28;20014;-85
2022/06/17 00:23:52;;;;;;;4.20;1.63;;;;;;;;;;5011831;28;20029;-85
2022/06/17 00:26:18;;;;;;;3.80;1.23;;;;;;;;;;5012073;28;20040;-85
2022/06/17 00:28:43;;;;;;;4.43;1.20;;;;;;;;;;5012024;28;20073;-85
2022/06/17 00:31:08;;;;;;;2.85;1.30;;;;;;;;;;5011660;28;20119;-85
2022/06/17 00:33:33;;;;;;;2.85;1.00;;;;;;;;;;5011787;28;20097;-85
2022/06/17 00:35:59;;;;;;;1.80;1.10;;;;;;;;;;5013249;28;20036;-85
2022/06/17 00:38:32;;;;;;;2.30;1.00;;;;;;;;;;5015609;28;20346;-85
2022/06/17 00:40:58;;;;;;;3.10;1.02;;;;;;;;;;5014021;28;20290;-85
2022/06/17 00:43:26;;;;;;;1.77;1.10;;;;;;;;;;5013975;28;20018;-85
2022/06/17 00:46:02;;;;;;;2.15;0.80;;;;;;;;;;5014832;28;20021;-84
2022/06/17 00:48:31;;;;;;;1.92;1.02;;;;;;;;;;5015530;28;20143;-84
2022/06/17 00:50:58;;;;;;;3.00;1.05;;;;;;;;;;5015228;28;20095;-85
2022/06/17 00:53:25;;;;;;;2.30;1.17;;;;;;;;;;5015311;28;20050;-85
2022/06/17 00:55:50;;;;;;;3.05;0.98;;;;;;;;;;5015486;28;20426;-85
2022/06/17 00:58:17;;;;;;;2.43;0.90;;;;;;;;;;5015262;28;20022;-85
2022/06/17 01:00:43;;;;;;;1.45;0.90;;;;;;;;;;5014563;28;20537;-86
2022/06/17 01:03:09;;;;;;;2.33;0.95;;;;;;;;;;5015229;28;20153;-85
2022/06/17 01:05:40;;;;;;;1.83;1.10;;;;;;;;;;5014901;28;20030;-85
2022/06/17 01:11:10;;;;;;;2.85;0.93;;;;;;;;;;5014679;28;20749;-85
2022/06/17 01:13:36;;;;;;;2.40;1.30;;;;;;;;;;5014733;28;20147;-85
2022/06/17 01:16:02;;;;;;;3.65;1.33;;;;;;;;;;5014158;28;20388;-85
2022/06/17 01:18:28;;;;;;;5.22;1.90;;;;;;;;;;5014774;28;20025;-86
2022/06/17 01:20:55;;;;;;;1.90;1.25;;;;;;;;;;5014890;28;20024;-85
2022/06/17 01:23:21;;;;;;;3.55;1.73;;;;;;;;;;5013314;28;20100;-85
2022/06/17 01:25:47;;;;;;;2.92;1.20;;;;;;;;;;5014622;28;20079;-85
2022/06/17 01:28:15;;;;;;;2.55;1.02;;;;;;;;;;5014671;28;20431;-85
2022/06/17 01:30:48;;;;;;;2.90;1.15;;;;;;;;;;5014316;28;20412;-84
2022/06/17 01:33:13;;;;;;;2.00;1.38;;;;;;;;;;5014849;28;20022;-85
2022/06/17 01:35:58;;;;;;;4.67;1.40;;;;;;;;;;5014414;28;20032;-84
2022/06/17 01:38:24;;;;;;;2.35;1.15;;;;;;;;;;5014296;28;20301;-84
2022/06/17 01:40:51;;;;;;;4.22;1.48;;;;;;;;;;5012882;28;20026;-84
2022/06/17 01:43:17;;;;;;;2.53;1.55;;;;;;;;;;5014271;28;20080;-84
2022/06/17 01:45:45;;;;;;;3.95;1.40;;;;;;;;;;5013929;28;20542;-84
2022/06/17 01:48:12;;;;;;;2.30;0.95;;;;;;;;;;5012592;28;20026;-84
2022/06/17 01:50:39;;;;;;;2.95;1.20;;;;;;;;;;5014019;28;20029;-85
2022/06/17 01:53:13;;;;;;;1.60;1.30;;;;;;;;;;5014161;28;20569;-85
2022/06/17 01:55:53;;;;;;;2.78;1.02;;;;;;;;;;5014031;28;20029;-85
2022/06/17 01:58:31;;;;;;;5.38;1.50;;;;;;;;;;5014013;28;20110;-85
2022/06/17 02:00:56;;;;;;;4.43;1.10;;;;;;;;;;5006768;28;20362;-86
2022/06/17 02:03:28;;;;;;;1.92;0.98;;;;;;;;;;4994323;28;20049;-85
2022/06/17 02:05:56;;;;;;;4.70;1.08;;;;;;;;;;4994247;28;20022;-85
2022/06/17 02:08:21;;;;;;;3.05;1.40;;;;;;;;;;4994162;28;20026;-85
2022/06/17 02:10:49;;;;;;;2.65;1.13;;;;;;;;;;4994394;28;20026;-86
2022/06/17 02:13:14;;;;;;;2.20;1.48;;;;;;;;;;4994103;28;20093;-85
2022/06/17 02:15:40;;;;;;;2.92;1.20;;;;;;;;;;5000297;28;20428;-84
2022/06/17 02:18:07;;;;;;;2.88;1.35;;;;;;;;;;5013603;28;20026;-84
2022/06/17 02:20:33;;;;;;;3.67;1.60;;;;;;;;;;5013618;28;20518;-84
2022/06/17 02:22:58;;;;;;;3.58;1.52;;;;;;;;;;5012186;28;20025;-84
2022/06/17 02:25:26;;;;;;;3.92;1.20;;;;;;;;;;5013618;28;20014;-84
2022/06/17 02:27:53;;;;;;;2.63;1.08;;;;;;;;;;5011018;28;20361;-84
2022/06/17 02:30:18;;;;;;;3.38;1.25;;;;;;;;;;5012765;28;20041;-84
2022/06/17 02:32:44;;;;;;;2.65;1.50;;;;;;;;;;5013212;28;20479;-84
2022/06/17 02:35:26;;;;;;;3.00;1.50;;;;;;;;;;5012003;28;20022;-85
2022/06/17 02:37:52;;;;;;;2.40;1.38;;;;;;;;;;5013183;28;20029;-85
2022/06/17 02:40:29;;;;;;;4.43;1.70;;;;;;;;;;5013415;28;20384;-85
2022/06/17 02:42:55;;;;;;;3.45;1.80;;;;;;;;;;5012967;28;20026;-86
2022/06/17 02:45:22;;;;;;;4.95;1.75;;;;;;;;;;5012714;28;20082;-84
2022/06/17 02:47:48;;;;;;;1.73;1.27;;;;;;;;;;5013000;28;20117;-86
2022/06/17 02:50:18;;;;;;;4.57;1.60;;;;;;;;;;5012819;28;20120;-84
2022/06/17 02:52:43;;;;;;;3.13;1.50;;;;;;;;;;5012767;28;20068;-86
2022/06/17 02:55:13;;;;;;;4.90;1.52;;;;;;;;;;5012889;28;20022;-85
2022/06/17 02:57:39;;;;;;;2.20;1.40;;;;;;;;;;5012845;28;20033;-85
2022/06/17 03:00:13;;;;;;;3.30;1.85;;;;;;;;;;5012171;28;20018;-85
2022/06/17 03:02:49;;;;;;;1.70;1.48;;;;;;;;;;5012857;28;20408;-86
2022/06/17 03:05:17;;;;;;;2.90;1.67;;;;;;;;;;5012754;28;20022;-85
2022/06/17 03:07:42;;;;;;;2.65;1.55;;;;;;;;;;5012915;28;20364;-85
2022/06/17 03:10:15;;;;;;;2.40;1.60;;;;;;;;;;5012601;28;20034;-85
2022/06/17 03:12:42;;;;;;;5.50;1.58;;;;;;;;;;5012346;28;20029;-85
2022/06/17 03:15:09;;;;;;;2.30;1.35;;;;;;;;;;5012178;28;20535;-85
2022/06/17 03:17:37;;;;;;;3.88;1.67;;;;;;;;;;5012449;28;20051;-84
2022/06/17 03:20:03;;;;;;;3.40;1.92;;;;;;;;;;5012434;28;20071;-85
2022/06/17 03:22:28;;;;;;;4.85;2.15;;;;;;;;;;5012260;28;20097;-85
2022/06/17 03:25:00;;;;;;;3.88;2.05;;;;;;;;;;4994403;28;20030;-84
2022/06/17 03:27:29;;;;;;;4.05;1.83;;;;;;;;;;5010968;28;20021;-84
2022/06/17 03:29:56;;;;;;;4.93;1.60;;;;;;;;;;5012227;28;20048;-84
2022/06/17 03:32:24;;;;;;;4.22;1.92;;;;;;;;;;5012223;28;20013;-84
2022/06/17 03:34:51;;;;;;;3.53;1.80;;;;;;;;;;5012144;28;20021;-84
2022/06/17 03:37:28;;;;;;;3.38;1.80;;;;;;;;;;5010905;28;20021;-86
2022/06/17 03:40:05;;;;;;;3.83;2.05;;;;;;;;;;5011806;28;20471;-84
2022/06/17 03:42:30;;;;;;;3.72;1.85;;;;;;;;;;5011952;28;20080;-84
2022/06/17 03:45:07;;;;;;;6.83;2.20;;;;;;;;;;5012100;28;20046;-85
2022/06/17 03:47:44;;;;;;;4.05;1.90;;;;;;;;;;5011555;28;20079;-85
2022/06/17 03:50:16;;;;;;;2.10;1.80;;;;;;;;;;5012293;28;20034;-85
2022/06/17 03:52:45;;;;;;;4.28;2.30;;;;;;;;;;5012059;28;20022;-85
2022/06/17 03:55:14;;;;;;;4.47;2.28;;;;;;;;;;5011745;28;20026;-84
2022/06/17 03:57:41;;;;;;;8.32;1.83;;;;;;;;;;5012513;28;20053;-85
2022/06/17 04:00:09;;;;;;;5.45;2.05;;;;;;;;;;5011716;28;20072;-85
2022/06/17 04:02:34;;;;;;;4.18;1.95;;;;;;;;;;5003495;28;20025;-84
2022/06/17 04:05:01;;;;;;;3.55;1.80;;;;;;;;;;5010659;28;20025;-85
2022/06/17 04:07:26;;;;;;;5.72;2.10;;;;;;;;;;5007957;28;20030;-85
2022/06/17 04:09:53;;;;;;;3.42;2.00;;;;;;;;;;5010540;28;20353;-85
2022/06/17 04:12:22;;;;;;;4.10;1.95;;;;;;;;;;5012485;28;20523;-84
2022/06/17 04:14:53;;;;;;;8.73;2.08;;;;;;;;;;5014363;28;20018;-84
2022/06/17 04:17:23;;;;;;;5.57;2.00;;;;;;;;;;5014625;28;20025;-85
2022/06/17 04:19:51;;;;;;;5.13;1.98;;;;;;;;;;5011036;28;20044;-84
2022/06/17 04:22:22;;;;;;;4.78;2.50;;;;;;;;;;5013931;28;20495;-85
2022/06/17 04:24:52;;;;;;;4.93;2.38;;;;;;;;;;5013947;28;20014;-85
2022/06/17 04:27:18;;;;;;;3.90;2.20;;;;;;;;;;5014173;28;20030;-84
2022/06/17 04:29:45;;;;;;;3.25;1.85;;;;;;;;;;5014064;28;20029;-85
2022/06/17 04:32:13;;;;;;;3.65;2.00;;;;;;;;;;5014002;28;20463;-85
2022/06/17 04:34:38;;;;;;;6.10;2.03;;;;;;;;;;5013826;28;20026;-85
2022/06/17 04:37:05;;;;;;;6.03;2.10;;;;;;;;;;5010819;28;20045;-85
2022/06/17 04:39:33;;;;;;;2.75;1.70;;;;;;;;;;5013698;28;20789;-85
2022/06/17 04:42:00;;;;;;;7.20;2.03;;;;;;;;;;5013893;28;20022;-84
2022/06/17 04:44:26;;;;;;;5.80;2.10;;;;;;;;;;5013738;28;20026;-84
2022/06/17 04:46:54;;;;;;;6.85;2.55;;;;;;;;;;5013878;28;20080;-84
2022/06/17 04:49:24;;;;;;;8.43;2.15;;;;;;;;;;5013744;28;20462;-85
2022/06/17 04:51:51;;;;;;;3.17;1.98;;;;;;;;;;5011716;28;20470;-85
2022/06/17 04:54:16;;;;;;;4.00;1.75;;;;;;;;;;5013256;28;20526;-85
2022/06/17 04:56:45;;;;;;;3.70;1.80;;;;;;;;;;5013457;28;20017;-85
2022/06/17 04:59:37;;;;;;;5.00;2.45;;;;;;;;;;5013461;28;20395;-85
2022/06/17 05:02:05;;;;;;;3.60;1.73;;;;;;;;;;5013037;28;20510;-85
2022/06/17 05:04:30;;;;;;;8.77;2.10;;;;;;;;;;5013322;28;20554;-84
2022/06/17 05:06:56;;;;;;;6.80;2.10;;;;;;;;;;5013705;28;20053;-85
2022/06/17 05:09:29;;;;;;;5.15;2.08;;;;;;;;;;5012948;28;20340;-84
2022/06/17 05:11:57;;;;;;;3.92;1.58;;;;;;;;;;5013008;28;20557;-84
2022/06/17 05:14:37;;;;;;;5.95;2.13;;;;;;;;;;5013115;28;20068;-84
2022/06/17 05:17:03;;;;;;;5.30;2.33;;;;;;;;;;5013301;28;20034;-85
2022/06/17 05:19:28;;;;;;;4.55;1.70;;;;;;;;;;5013265;28;20360;-85
2022/06/17 05:21:54;;;;;;;4.15;1.73;;;;;;;;;;5012858;28;20037;-84
2022/06/17 05:24:19;;;;;;;6.18;1.90;;;;;;;;;;5013120;28;20569;-85
2022/06/17 05:26:44;;;;;;;6.13;2.20;;;;;;;;;;5012406;28;20014;-84
2022/06/17 05:29:09;;;;;;;3.60;1.60;;;;;;;;;;5012708;28;20518;-84
2022/06/17 05:31:35;;;;;;;2.45;1.70;;;;;;;;;;5012849;28;20753;-84
2022/06/17 05:34:01;;;;;;;3.90;2.00;;;;;;;;;;5012850;28;20096;-85
2022/06/17 05:36:26;;;;;;;4.05;1.75;;;;;;;;;;5012781;28;20026;-84
2022/06/17 05:38:52;;;;;;;4.32;1.42;;;;;;;;;;5013056;28;20093;-84
2022/06/17 05:41:19;;;;;;;3.25;1.85;;;;;;;;;;5012755;28;20022;-85
2022/06/17 05:43:44;;;;;;;5.05;1.80;;;;;;;;;;5011988;28;20022;-85
2022/06/17 05:46:09;;;;;;;7.32;1.60;;;;;;;;;;5012464;28;20018;-84
2022/06/17 05:48:34;;;;;;;4.95;1.70;;;;;;;;;;5012343;28;20028;-84
2022/06/17 05:51:01;;;;;;;3.10;1.30;;;;;;;;;;5012737;28;20030;-84
2022/06/17 05:53:26;;;;;;;5.65;1.90;;;;;;;;;;5012675;28;20030;-84
2022/06/17 05:55:51;;;;;;;2.97;1.52;;;;;;;;;;5012448;28;20018;-84
2022/06/17 05:58:17;;;;;;;6.28;1.77;;;;;;;;;;5014710;28;20041;-85
2022/06/17 06:00:42;;;;;;;8.57;3.47;;;;;;;;;;5014225;28;20049;-85
2022/06/17 06:03:08;;;;;;;5.97;2.10;;;;;;;;;;5008932;28;20044;-84
2022/06/17 06:05:33;;;;;;;7.20;2.00;;;;;;;;;;5008833;28;20267;-86
2022/06/17 06:07:59;;;;;;;7.68;2.05;;;;;;;;;;5008716;28;20029;-87
2022/06/17 06:10:24;;;;;;;8.63;2.17;;;;;;;;;;5008880;28;20073;-86
2022/06/17 06:13:05;;;;;;;2.55;1.70;;;;;;;;;;5008394;28;20494;-85
2022/06/17 06:15:30;;;;;;;3.83;1.60;;;;;;;;;;5013564;28;20029;-85
2022/06/17 06:17:55;;;;;;;8.10;2.30;;;;;;;;;;5012840;28;20014;-85
2022/06/17 06:20:21;;;;;;;5.15;1.85;;;;;;;;;;5013223;28;20267;-85
2022/06/17 06:22:46;;;;;;;4.53;1.67;;;;;;;;;;5012006;28;20472;-85
2022/06/17 06:25:13;;;;;;;8.23;1.52;;;;;;;;;;5013555;28;20029;-85
2022/06/17 06:27:38;;;;;;;4.82;1.27;;;;;;;;;;5012370;28;20076;-85
2022/06/17 06:30:04;;;;;;;4.10;1.93;;;;;;;;;;5013010;28;20699;-85
2022/06/17 06:32:29;;;;;;;3.95;1.60;;;;;;;;;;5012970;28;20725;-85
2022/06/17 06:34:54;;;;;;;2.88;1.48;;;;;;;;;;5011864;28;20029;-86
2022/06/17 06:37:20;;;;;;;3.38;1.70;;;;;;;;;;5012640;28;20042;-86
2022/06/17 06:39:45;;;;;;;3.25;1.40;;;;;;;;;;5012991;28;20018;-86
2022/06/17 06:42:10;;;;;;;6.13;1.92;;;;;;;;;;5012212;28;20064;-86
2022/06/17 06:44:36;;;;;;;4.57;1.70;;;;;;;;;;5012839;28;20468;-86
2022/06/17 06:47:01;;;;;;;4.68;1.60;;;;;;;;;;5012760;28;20034;-86
2022/06/17 06:49:26;;;;;;;4.85;1.50;;;;;;;;;;5012219;28;20105;-86
2022/06/17 06:51:51;;;;;;;1.80;1.27;;;;;;;;;;5012757;28;20022;-86
2022/06/17 06:54:16;;;;;;;3.37;1.43;;;;;;;;;;5012956;28;20270;-86
2022/06/17 06:56:42;;;;;;;4.43;1.30;;;;;;;;;;5011937;28;20044;-88
2022/06/17 06:59:08;;;;;;;4.90;1.53;;;;;;;;;;5011604;28;20033;-85
2022/06/17 07:01:33;;;;;;;4.07;2.05;;;;;;;;;;5012784;28;20018;-88
2022/06/17 07:03:59;;;;;;;6.80;1.50;;;;;;;;;;5012767;28;20384;-86
2022/06/17 07:06:24;;;;;;;4.80;1.42;;;;;;;;;;5013137;28;20020;-86
2022/06/17 07:08:49;;;;;;;4.13;1.20;;;;;;;;;;5012829;28;20109;-88
2022/06/17 07:11:16;;;;;;;11.13;1.30;;;;;;;;;;5012551;28;20033;-88
2022/06/17 07:13:42;;;;;;;5.47;1.70;;;;;;;;;;5003644;28;20023;-84
2022/06/17 07:16:07;;;;;;;6.72;1.60;;;;;;;;;;5010791;28;20033;-86
2022/06/17 07:18:34;;;;;;;12.27;2.63;;;;;;;;;;5012631;28;20057;-87
2022/06/17 07:21:00;;;;;;;6.28;1.63;;;;;;;;;;5012694;28;20309;-88
2022/06/17 07:23:29;;;;;;;5.70;1.65;;;;;;;;;;5011692;28;20486;-85
2022/06/17 07:25:55;;;;;;;5.57;1.92;;;;;;;;;;5012260;28;20033;-86
2022/06/17 07:28:21;;;;;;;5.13;1.92;;;;;;;;;;5010354;28;20018;-87
2022/06/17 07:30:48;;;;;;;6.43;1.60;;;;;;;;;;5007805;28;20084;-87
2022/06/17 07:33:13;;;;;;;6.13;1.80;;;;;;;;;;5006819;28;20480;-86
2022/06/17 07:35:40;;;;;;;4.05;1.73;;;;;;;;;;5007659;28;20044;-86
2022/06/17 07:40:49;;;;;;;3.22;1.50;;;;;;;;;;5011655;28;20021;-86
2022/06/17 07:43:16;;;;;;;9.70;1.75;;;;;;;;;;5009790;28;20018;-86
2022/06/17 07:45:41;;;;;;;5.45;1.90;;;;;;;;;;5011600;28;20076;-86
2022/06/17 07:48:07;;;;;;;4.55;1.60;;;;;;;;;;5011997;28;20504;-86
2022/06/17 07:50:33;;;;;;;6.78;2.15;;;;;;;;;;5010651;28;20044;-86
2022/06/17 07:52:58;;;;;;;9.77;2.20;;;;;;;;;;5012226;28;20028;-86
2022/06/17 07:55:24;;;;;;;7.88;1.75;;;;;;;;;;5012052;28;20379;-86
2022/06/17 07:57:49;;;;;;;5.18;1.73;;;;;;;;;;5012038;28;20476;-86
2022/06/17 08:00:17;;;;;;;5.47;1.75;;;;;;;;;;5011984;28;20036;-86
2022/06/17 08:02:42;;;;;;;7.90;1.60;;;;;;;;;;5014411;28;20014;-87
2022/06/17 08:05:07;;;;;;;8.80;1.90;;;;;;;;;;5016355;28;20064;-86
2022/06/17 08:07:33;;;;;;;5.85;1.45;;;;;;;;;;5012067;28;20033;-86
2022/06/17 08:09:58;;;;;;;10.55;2.17;;;;;;;;;;5012236;28;20034;-87
2022/06/17 08:12:23;;;;;;;5.03;1.40;;;;;;;;;;5012277;28;20036;-87
2022/06/17 08:14:49;;;;;;;8.67;1.70;;;;;;;;;;5012357;28;20026;-86
2022/06/17 08:17:15;;;;;;;6.28;1.23;;;;;;;;;;5012573;28;20014;-86
2022/06/17 08:19:41;;;;;;;4.35;1.42;;;;;;;;;;5012416;28;20022;-87
2022/06/17 08:22:07;;;;;;;3.47;1.60;;;;;;;;;;5012252;28;20040;-87
2022/06/17 08:24:32;;;;;;;7.30;1.40;;;;;;;;;;5012045;28;20026;-87
2022/06/17 08:26:57;;;;;;;5.90;1.40;;;;;;;;;;5008345;28;20024;-86
2022/06/17 08:29:26;;;;;;;4.43;1.40;;;;;;;;;;5007297;28;20033;-86
2022/06/17 08:31:51;;;;;;;6.05;1.58;;;;;;;;;;5000107;28;20344;-87
2022/06/17 08:34:16;;;;;;;2.85;1.02;;;;;;;;;;5009168;28;20161;-87
2022/06/17 08:36:41;;;;;;;6.77;1.60;;;;;;;;;;5009901;28;20025;-86
2022/06/17 08:39:09;;;;;;;13.17;1.20;;;;;;;;;;5010571;28;20049;-86
2022/06/17 08:41:36;;;;;;;4.93;1.38;;;;;;;;;;5011069;28;20068;-87
2022/06/17 08:44:15;;;;;;;13.18;1.20;;;;;;;;;;5010840;28;20018;-87
2022/06/17 08:47:03;;;;;;;3.65;1.20;;;;;;;;;;5006885;28;20076;-86
2022/06/17 08:49:46;;;;;;;5.13;1.25;;;;;;;;;;5008263;28;20041;-84
2022/06/17 08:52:21;;;;;;;8.15;1.33;;;;;;;;;;5007273;28;20069;-86
2022/06/17 08:55:05;;;;;;;5.35;1.30;;;;;;;;;;5007851;28;20022;-86
2022/06/17 08:57:30;;;;;;;4.72;1.27;;;;;;;;;;5010980;28;20034;-86
2022/06/17 08:59:55;;;;;;;5.73;1.97;;;;;;;;;;5013318;28;20360;-87
2022/06/17 09:02:20;;;;;;;2.33;1.20;;;;;;;;;;5012720;28;20053;-84
2022/06/17 09:05:04;;;;;;;5.33;1.30;;;;;;;;;;5008282;28;20025;-85
2022/06/17 09:07:37;;;;;;;7.15;1.30;;;;;;;;;;5012985;28;20272;-85
2022/06/17 09:10:27;;;;;;;5.32;1.40;;;;;;;;;;5010197;28;20036;-84
2022/06/17 09:12:52;;;;;;;4.57;1.67;;;;;;;;;;5003897;28;20535;-85
2022/06/17 09:15:21;;;;;;;4.23;1.20;;;;;;;;;;5006799;28;20030;-86
2022/06/17 09:17:53;;;;;;;3.30;1.30;;;;;;;;;;5007818;28;21719;-85
2022/06/17 09:20:23;;;;;;;2.55;1.30;;;;;;;;;;5010954;28;20076;-85
2022/06/17 09:22:57;;;;;;;8.25;1.27;;;;;;;;;;5010489;28;20117;-85
2022/06/17 09:25:26;;;;;;;7.40;1.60;;;;;;;;;;5003922;28;20383;-84
2022/06/17 09:27:53;;;;;;;6.15;1.25;;;;;;;;;;5012062;28;20037;-85
2022/06/17 09:30:19;;;;;;;5.82;1.73;;;;;;;;;;5008425;28;20035;-83
2022/06/17 09:33:03;;;;;;;4.93;1.33;;;;;;;;;;5009966;28;20018;-84
2022/06/17 09:35:36;;;;;;;2.80;1.33;;;;;;;;;;5012236;28;20053;-84
2022/06/17 09:38:11;;;;;;;4.63;1.65;;;;;;;;;;5011480;28;20034;-85
2022/06/17 09:40:50;;;;;;;5.05;1.95;;;;;;;;;;5011979;28;20475;-83
2022/06/17 09:43:20;;;;;;;6.13;1.20;;;;;;;;;;5007698;28;20483;-83
2022/06/17 09:45:45;;;;;;;3.95;1.48;;;;;;;;;;5006756;28;20100;-84
2022/06/17 09:48:14;;;;;;;8.53;2.00;;;;;;;;;;5008007;28;20139;-84
2022/06/17 09:50:58;;;;;;;5.43;1.60;;;;;;;;;;5012432;28;20038;-84
2022/06/17 09:53:30;;;;;;;7.38;1.63;;;;;;;;;;5010345;28;20022;-85
2022/06/17 09:56:04;;;;;;;6.40;1.20;;;;;;;;;;5011602;28;20550;-84
2022/06/17 09:58:32;;;;;;;7.03;1.30;;;;;;;;;;5011656;28;20510;-84
2022/06/17 10:00:57;;;;;;;2.17;1.30;;;;;;;;;;5010773;28;20352;-85
2022/06/17 10:03:23;;;;;;;5.30;1.43;;;;;;;;;;5007602;28;20102;-84
2022/06/17 10:05:55;;;;;;;2.58;1.23;;;;;;;;;;5011757;28;20506;-83
2022/06/17 10:08:38;;;;;;;4.13;1.20;;;;;;;;;;5012116;28;20402;-84
2022/06/17 10:11:12;;;;;;;3.75;1.30;;;;;;;;;;5009750;28;20041;-83
2022/06/17 10:13:47;;;;;;;8.00;2.97;;;;;;;;;;5007373;28;20026;-84
2022/06/17 10:19:09;;;;;;;5.40;1.83;;;;;;;;;;5003330;28;20033;-84
2022/06/17 10:21:54;;;;;;;5.90;1.50;;;;;;;;;;5004340;28;20100;-84
2022/06/17 10:24:38;;;;;;;3.83;1.70;;;;;;;;;;5008537;28;20038;-85
2022/06/17 10:27:16;;;;;;;5.60;1.30;;;;;;;;;;5009897;28;20021;-84
2022/06/17 10:29:47;;;;;;;7.40;1.60;;;;;;;;;;5007190;28;20476;-84
2022/06/17 10:32:13;;;;;;;4.43;1.65;;;;;;;;;;5005303;28;20026;-84
2022/06/17 10:34:46;;;;;;;7.40;1.80;;;;;;;;;;5010432;28;20571;-84
2022/06/17 10:37:12;;;;;;;3.83;1.30;;;;;;;;;;5005488;28;20034;-84
2022/06/17 10:39:39;;;;;;;6.53;1.52;;;;;;;;;;5010347;28;20025;-84
2022/06/17 10:42:06;;;;;;;2.50;1.17;;;;;;;;;;5005474;28;20460;-84
2022/06/17 10:44:32;;;;;;;18.52;2.00;;;;;;;;;;5011013;28;20067;-85
2022/06/17 10:47:10;;;;;;;4.68;1.83;;;;;;;;;;5009298;28;20030;-84
2022/06/17 10:49:40;;;;;;;6.55;1.67;;;;;;;;;;5008301;28;20534;-84
2022/06/17 10:52:10;;;;;;;5.75;1.55;;;;;;;;;;5006269;28;20060;-83
2022/06/17 10:54:36;;;;;;;5.30;1.58;;;;;;;;;;5008157;28;20079;-85
2022/06/17 10:57:05;;;;;;;3.13;1.10;;;;;;;;;;5010532;28;20456;-85
2022/06/17 10:59:32;;;;;;;8.20;1.67;;;;;;;;;;5011200;28;20049;-85
2022/06/17 11:01:58;;;;;;;13.90;2.15;;;;;;;;;;5008818;28;20018;-85
2022/06/17 11:04:30;;;;;;;5.22;1.90;;;;;;;;;;5002072;28;20027;-85
2022/06/17 11:06:59;;;;;;;9.32;1.80;;;;;;;;;;5004251;28;20491;-85
2022/06/17 11:09:27;;;;;;;2.25;1.25;;;;;;;;;;5001220;28;20026;-85
2022/06/17 11:12:02;;;;;;;8.13;1.75;;;;;;;;;;5008602;28;20088;-85
2022/06/17 11:14:38;;;;;;;9.00;1.83;;;;;;;;;;4999647;28;20030;-85
2022/06/17 11:17:09;;;;;;;9.30;1.65;;;;;;;;;;5007930;28;20048;-85
2022/06/17 11:19:37;;;;;;;7.18;2.10;;;;;;;;;;5000631;28;20355;-85
2022/06/17 11:22:03;;;;;;;6.10;2.15;;;;;;;;;;5009995;28;20460;-85
2022/06/17 11:24:31;;;;;;;6.55;1.83;;;;;;;;;;5008050;28;20029;-85
2022/06/17 11:27:19;;;;;;;6.95;1.90;;;;;;;;;;5009329;28;20021;-85
2022/06/17 11:29:46;;;;;;;5.45;1.45;;;;;;;;;;5004074;28;20758;-84
2022/06/17 11:32:22;;;;;;;4.72;1.80;;;;;;;;;;5009881;28;20022;-84
2022/06/17 11:34:53;;;;;;;11.18;1.88;;;;;;;;;;5003992;28;20594;-84
2022/06/17 11:37:20;;;;;;;5.63;2.05;;;;;;;;;;5010126;28;20053;-84
2022/06/17 11:39:45;;;;;;;12.18;3.03;;;;;;;;;;5010279;28;20026;-86
2022/06/17 11:42:18;;;;;;;9.20;2.03;;;;;;;;;;5008971;28;20160;-87
2022/06/17 11:44:52;;;;;;;8.90;2.35;;;;;;;;;;5006141;28;20367;-85
2022/06/17 11:47:19;;;;;;;4.30;1.60;;;;;;;;;;5006005;28;20388;-86
2022/06/17 11:49:45;;;;;;;11.20;2.20;;;;;;;;;;5006067;28;20427;-85
2022/06/17 11:52:18;;;;;;;12.52;2.03;;;;;;;;;;5006418;28;20030;-85
2022/06/17 11:54:48;;;;;;;11.75;1.50;;;;;;;;;;5009647;28;20046;-85
2022/06/17 11:57:20;;;;;;;4.90;1.88;;;;;;;;;;5010051;28;20057;-86
2022/06/17 11:59:50;;;;;;;6.20;1.85;;;;;;;;;;5009098;28;20025;-86
2022/06/17 12:02:16;;;;;;;4.93;2.38;;;;;;;;;;5007996;28;20026;-86
2022/06/17 12:04:46;;;;;;;9.15;2.63;;;;;;;;;;5009158;28;20018;-86
2022/06/17 12:07:23;;;;;;;11.55;2.65;;;;;;;;;;5008986;28;20022;-86
2022/06/17 12:09:51;;;;;;;10.98;2.08;;;;;;;;;;5007571;28;20034;-86
2022/06/17 12:12:17;;;;;;;8.30;2.17;;;;;;;;;;5008963;28;20010;-86
2022/06/17 12:14:56;;;;;;;12.52;2.10;;;;;;;;;;5009346;28;20026;-85
2022/06/17 12:17:21;;;;;;;9.15;2.05;;;;;;;;;;5006017;28;20022;-86
2022/06/17 12:19:46;;;;;;;7.97;1.80;;;;;;;;;;5008281;28;20133;-85
2022/06/17 12:22:14;;;;;;;9.83;2.67;;;;;;;;;;5010608;28;20427;-86
2022/06/17 12:24:48;;;;;;;4.80;1.65;;;;;;;;;;5010419;28;20018;-85
2022/06/17 12:27:22;;;;;;;6.97;2.05;;;;;;;;;;4998897;28;20054;-86
2022/06/17 12:29:55;;;;;;;6.97;1.98;;;;;;;;;;5004440;28;20030;-86
2022/06/17 12:32:38;;;;;;;12.52;2.13;;;;;;;;;;5011343;28;20034;-86
2022/06/17 12:35:12;;;;;;;6.72;2.33;;;;;;;;;;5013757;28;20029;-86
2022/06/17 12:37:40;;;;;;;11.05;2.20;;;;;;;;;;5013986;28;20024;-86
2022/06/17 12:40:10;;;;;;;5.82;2.10;;;;;;;;;;5010276;28;20025;-86
2022/06/17 12:42:40;;;;;;;8.70;2.30;;;;;;;;;;5004098;28;20461;-86
2022/06/17 12:45:08;;;;;;;11.77;2.03;;;;;;;;;;5010468;28;20088;-85
2022/06/17 12:47:41;;;;;;;6.82;2.03;;;;;;;;;;5007779;28;20049;-86
2022/06/17 12:53:17;;;;;;;6.70;2.00;;;;;;;;;;5007060;28;20088;-85
2022/06/17 12:56:18;;;;;;;11.98;2.10;;;;;;;;;;5008948;28;20032;-86
2022/06/17 12:58:52;;;;;;;12.38;2.92;;;;;;;;;;4990218;28;20025;-85
2022/06/17 13:01:20;;;;;;;7.43;2.33;;;;;;;;;;5008032;28;20504;-86
2022/06/17 13:04:01;;;;;;;7.18;2.03;;;;;;;;;;5008516;28;20010;-85
2022/06/17 13:06:41;;;;;;;10.80;1.90;;;;;;;;;;5010573;28;20108;-85
2022/06/17 13:09:22;;;;;;;6.88;2.03;;;;;;;;;;5011610;28;20057;-85
2022/06/17 13:11:47;;;;;;;;;;;;;;;;;;5001925;28;20017;-85
2022/06/17 13:14:13;;;;;;;9.57;2.30;;;;;;;;;;5008780;28;19959;-85
2022/06/17 13:16:47;;;;;;;10.83;2.13;;;;;;;;;;5010972;28;20033;-86
2022/06/17 13:19:17;;;;;;;10.50;2.10;;;;;;;;;;5010891;28;20298;-85
2022/06/17 13:21:59;;;;;;;13.38;2.25;;;;;;;;;;5012702;28;20017;-85
2022/06/17 13:24:26;;;;;;;7.28;1.80;;;;;;;;;;5010865;28;20368;-85
2022/06/17 13:27:02;;;;;;;12.32;2.38;;;;;;;;;;5011171;28;20029;-86
2022/06/17 13:29:30;;;;;;;8.35;2.65;;;;;;;;;;5008090;28;20026;-84
2022/06/17 13:31:58;;;;;;;15.73;2.45;;;;;;;;;;5009785;28;20029;-85
2022/06/17 13:34:28;;;;;;;15.57;2.42;;;;;;;;;;5010865;28;20080;-86
2022/06/17 13:37:05;;;;;;;6.72;2.15;;;;;;;;;;5006967;28;20026;-84
2022/06/17 13:39:33;;;;;;;6.07;2.53;;;;;;;;;;5005609;28;20373;-83
2022/06/17 13:41:58;;;;;;;14.45;2.97;;;;;;;;;;5015790;28;20079;-84
2022/06/17 13:44:41;;;;;;;6.40;2.07;;;;;;;;;;5012710;28;20426;-83
2022/06/17 13:47:25;;;;;;;19.17;2.70;;;;;;;;;;5009489;28;20028;-84
2022/06/17 13:49:54;;;;;;;6.07;2.45;;;;;;;;;;5011070;28;20053;-85
2022/06/17 13:52:24;;;;;;;8.23;2.20;;;;;;;;;;5011636;28;20100;-85
2022/06/17 13:55:08;;;;;;;9.10;2.23;;;;;;;;;;5013081;28;20037;-85
2022/06/17 13:57:46;;;;;;;12.30;2.25;;;;;;;;;;5009035;28;20024;-84
2022/06/17 14:00:23;;;;;;;8.45;2.60;;;;;;;;;;5012690;28;20371;-84
2022/06/17 14:02:51;;;;;;;9.23;2.10;;;;;;;;;;5013817;28;20014;-83
2022/06/17 14:05:25;;;;;;;9.27;2.28;;;;;;;;;;5013599;28;20040;-83
2022/06/17 14:07:50;;;;;;;7.60;2.00;;;;;;;;;;5013836;28;20045;-82
2022/06/17 14:10:34;;;;;;;5.87;2.10;;;;;;;;;;5013308;28;20481;-82
2022/06/17 14:13:00;;;;;;;10.40;2.30;;;;;;;;;;5013173;28;20532;-83
2022/06/17 14:15:33;;;;;;;7.97;2.65;;;;;;;;;;5013679;28;20025;-83
2022/06/17 14:18:00;;;;;;;9.35;2.58;;;;;;;;;;5013640;28;20030;-82
2022/06/17 14:20:25;;;;;;;9.90;2.17;;;;;;;;;;5013642;28;20032;-83
2022/06/17 14:23:06;;;;;;;7.10;2.63;;;;;;;;;;5013478;28;20511;-84
2022/06/17 14:25:44;;;;;;;4.82;2.00;;;;;;;;;;5012289;28;20112;-83
2022/06/17 14:28:29;;;;;;;5.55;1.95;;;;;;;;;;4993850;28;20026;-83
2022/06/17 14:31:08;;;;;;;8.82;2.65;;;;;;;;;;4993729;28;20034;-83
2022/06/17 14:33:39;;;;;;;9.50;2.40;;;;;;;;;;5012606;28;20029;-82
2022/06/17 14:36:07;;;;;;;10.75;4.03;;;;;;;;;;5013237;28;20018;-83
2022/06/17 14:38:35;;;;;;;10.15;2.05;;;;;;;;;;5013235;28;20018;-83
2022/06/17 14:43:51;;;;;;;8.90;2.45;;;;;;;;;;5013186;28;20040;-83
2022/06/17 14:46:16;;;;;;;;;;;;;;;;;;5013499;28;20024;-83
2022/06/17 14:48:49;;;;;;;10.75;2.58;;;;;;;;;;5012811;28;19994;-83
2022/06/17 14:51:32;;;;;;;6.28;2.10;;;;;;;;;;5012383;28;20030;-83
2022/06/17 14:54:18;;;;;;;10.85;1.85;;;;;;;;;;5012404;28;20026;-83
2022/06/17 14:57:00;;;;;;;8.85;3.03;;;;;;;;;;5012823;28;20030;-83
2022/06/17 14:59:27;;;;;;;13.57;2.30;;;;;;;;;;5012942;28;20378;-83
2022/06/17 15:01:55;;;;;;;6.55;2.65;;;;;;;;;;5012649;28;20471;-83
2022/06/17 15:04:21;;;;;;;8.35;3.28;;;;;;;;;;5012159;28;20112;-83
2022/06/17 15:06:47;;;;;;;13.40;3.10;;;;;;;;;;5012791;28;20375;-83
2022/06/17 15:09:32;;;;;;;9.55;2.80;;;;;;;;;;5012831;28;20100;-83
2022/06/17 15:12:00;;;;;;;10.65;2.55;;;;;;;;;;5012458;28;20049;-84